Stephen R Warden — WDC6523 — position and weather

sailwx.info

Track history (hours):
 
Tides and Currents Weather Stations Pressure Air Temp Water Temp Dewpoint Dewpoint Depression Visibility Wind Speed Wind Dir Waves Ship Positions

Stephen R Warden

Owner: American Commercial Lines LLC, Jeffersonvile, IN. More information available from US FCC via Universal Licensing System and Coast Guard Vessel Documentation Center.

Last reported at 2015-Mar-04 16:33 UTC. Time now 2015-Mar-06 04:06 UTC.
Position N 29°55' W 089°58'.

Length 37 m; draft 3 m.

Type: Towing. MMSI: 367057460.

Date/timePositionNaut miles runAvg speedWind from/ knotsBaromVisibWave heightAir tempDewpointWater temp
2015-Mar-04 16:33N 29°55' W 089°58'1 0.6
2015-Mar-04 15:32N 29°56' W 089°59'0 0.0
2015-Mar-04 14:33N 29°56' W 089°59'0 0.0
2015-Mar-04 13:33N 29°56' W 089°59'0 0.0
2015-Mar-04 12:32N 29°56' W 089°59'0 0.0
2015-Mar-04 11:32N 29°56' W 089°59'0 0.0
2015-Mar-04 10:32N 29°56' W 089°59'0 0.0
2015-Mar-04 09:32N 29°56' W 089°59'0 0.0
2015-Mar-04 08:29N 29°56' W 089°59'0 0.0
2015-Mar-04 07:30N 29°56' W 089°59'  
2015-Mar-01 05:04N 29°55' W 090°06'4 5.0
2015-Mar-01 04:22N 29°57' W 090°04'3 1.4
2015-Mar-01 02:25N 29°57' W 090°00'3 4.0
2015-Mar-01 01:33N 29°55' W 090°04'6 2.8
2015-Feb-28 23:31N 29°57' W 090°10'3 2.9
2015-Feb-28 22:33N 29°55' W 090°08'4 4.2
2015-Feb-28 21:33N 29°57' W 090°04'4 4.0
2015-Feb-28 20:29N 29°56' W 089°59'4 4.4
2015-Feb-28 19:33N 29°54' W 089°55'4 3.1
2015-Feb-28 18:20N 29°52' W 089°58'6 0.3
2015-Feb-27 22:31N 29°57' W 090°02'6 5.4
2015-Feb-27 21:26N 29°56' W 090°08'3 3.1
2015-Feb-27 20:26N 29°56' W 090°12'0 0.1
2015-Feb-27 16:04N 29°56' W 090°12'0 0.1
2015-Feb-27 13:18N 29°56' W 090°12'0 0.0
2015-Feb-27 12:33N 29°56' W 090°12'0 0.0
2015-Feb-27 11:27N 29°56' W 090°12'0 0.0
2015-Feb-27 10:25N 29°56' W 090°12'0 0.0
2015-Feb-27 09:32N 29°56' W 090°12'0 0.0
2015-Feb-27 08:31N 29°56' W 090°12'0 0.0
2015-Feb-27 07:13N 29°56' W 090°12'28 1.9
2015-Feb-26 16:24N 30°01' W 090°44'2 1.1
2015-Feb-26 14:12N 30°02' W 090°41'5 3.0
2015-Feb-26 12:27N 30°03' W 090°35'29 3.1
2015-Feb-26 03:11N 29°57' W 090°03'3 4.6
2015-Feb-26 02:28N 29°56' W 089°59'4 3.6
2015-Feb-26 01:15N 29°54' W 089°55'2 0.2
2015-Feb-25 14:24N 29°52' W 089°56'5 3.9
2015-Feb-25 13:10N 29°56' W 089°60'2 2.8
2015-Feb-25 12:33N 29°57' W 090°01'9 0.3
2015-Feb-24 09:05N 29°56' W 090°12'34 2.3
2015-Feb-23 18:28N 30°00' W 090°50'  
Track history (hours):
 
Tides and Currents Weather Stations Pressure Air Temp Water Temp Dewpoint Dewpoint Depression Visibility Wind Speed Wind Dir Waves Ship Positions

Stephen R Warden

Owner: American Commercial Lines LLC, Jeffersonvile, IN. More information available from US FCC via Universal Licensing System and Coast Guard Vessel Documentation Center.

Last reported at 2015-Mar-04 16:33 UTC. Time now 2015-Mar-06 04:06 UTC.
Position N 29°55' W 089°58'.

Length 37 m; draft 3 m.

Type: Towing. MMSI: 367057460.

Date/timePositionNaut miles runAvg speedWind from/ knotsBaromVisibWave heightAir tempDewpointWater temp
2015-Mar-04 16:33N 29°55' W 089°58'1 0.6
2015-Mar-04 15:32N 29°56' W 089°59'0 0.0
2015-Mar-04 14:33N 29°56' W 089°59'0 0.0
2015-Mar-04 13:33N 29°56' W 089°59'0 0.0
2015-Mar-04 12:32N 29°56' W 089°59'0 0.0
2015-Mar-04 11:32N 29°56' W 089°59'0 0.0
2015-Mar-04 10:32N 29°56' W 089°59'0 0.0
2015-Mar-04 09:32N 29°56' W 089°59'0 0.0
2015-Mar-04 08:29N 29°56' W 089°59'0 0.0
2015-Mar-04 07:30N 29°56' W 089°59'  
2015-Mar-01 05:04N 29°55' W 090°06'4 5.0
2015-Mar-01 04:22N 29°57' W 090°04'3 1.4
2015-Mar-01 02:25N 29°57' W 090°00'3 4.0
2015-Mar-01 01:33N 29°55' W 090°04'6 2.8
2015-Feb-28 23:31N 29°57' W 090°10'3 2.9
2015-Feb-28 22:33N 29°55' W 090°08'4 4.2
2015-Feb-28 21:33N 29°57' W 090°04'4 4.0
2015-Feb-28 20:29N 29°56' W 089°59'4 4.4
2015-Feb-28 19:33N 29°54' W 089°55'4 3.1
2015-Feb-28 18:20N 29°52' W 089°58'6 0.3
2015-Feb-27 22:31N 29°57' W 090°02'6 5.4
2015-Feb-27 21:26N 29°56' W 090°08'3 3.1
2015-Feb-27 20:26N 29°56' W 090°12'0 0.1
2015-Feb-27 16:04N 29°56' W 090°12'0 0.1
2015-Feb-27 13:18N 29°56' W 090°12'0 0.0
2015-Feb-27 12:33N 29°56' W 090°12'0 0.0
2015-Feb-27 11:27N 29°56' W 090°12'0 0.0
2015-Feb-27 10:25N 29°56' W 090°12'0 0.0
2015-Feb-27 09:32N 29°56' W 090°12'0 0.0
2015-Feb-27 08:31N 29°56' W 090°12'0 0.0
2015-Feb-27 07:13N 29°56' W 090°12'28 1.9
2015-Feb-26 16:24N 30°01' W 090°44'2 1.1
2015-Feb-26 14:12N 30°02' W 090°41'5 3.0
2015-Feb-26 12:27N 30°03' W 090°35'29 3.1
2015-Feb-26 03:11N 29°57' W 090°03'3 4.6
2015-Feb-26 02:28N 29°56' W 089°59'4 3.6
2015-Feb-26 01:15N 29°54' W 089°55'2 0.2
2015-Feb-25 14:24N 29°52' W 089°56'5 3.9
2015-Feb-25 13:10N 29°56' W 089°60'2 2.8
2015-Feb-25 12:33N 29°57' W 090°01'9 0.3
2015-Feb-24 09:05N 29°56' W 090°12'34 2.3
2015-Feb-23 18:28N 30°00' W 090°50'  

Dump ship's entire track history